createdAt,value
2017-09-13T00:00:09.144Z,1.60
2017-09-13T00:02:38.651Z,1.80
2017-09-13T00:05:07.909Z,1.80
2017-09-13T00:07:37.978Z,3.20
2017-09-13T00:10:07.222Z,1.83
2017-09-13T00:12:36.510Z,1.70
2017-09-13T00:15:05.754Z,1.93
2017-09-13T00:17:35.022Z,1.70
2017-09-13T00:20:04.283Z,1.57
2017-09-13T00:22:33.546Z,1.60
2017-09-13T00:25:02.863Z,1.90
2017-09-13T00:27:32.109Z,2.30
2017-09-13T00:30:01.540Z,2.00
2017-09-13T00:32:31.669Z,1.80
2017-09-13T00:35:01.690Z,2.37
2017-09-13T00:37:30.962Z,2.10
2017-09-13T00:40:00.378Z,2.53
2017-09-13T00:42:29.644Z,1.43
2017-09-13T00:44:58.903Z,1.80
2017-09-13T00:47:28.174Z,2.23
2017-09-13T00:49:57.429Z,1.80
2017-09-13T00:52:26.674Z,1.93
2017-09-13T00:54:55.943Z,1.87
2017-09-13T00:57:25.199Z,1.93
2017-09-13T00:59:55.143Z,1.87
2017-09-13T01:02:24.497Z,1.50
2017-09-13T01:04:53.813Z,2.10
2017-09-13T01:07:23.917Z,1.80
2017-09-13T01:09:53.217Z,2.33
2017-09-13T01:12:23.255Z,2.00
2017-09-13T01:14:52.514Z,1.83
2017-09-13T01:17:21.785Z,2.03
2017-09-13T01:19:51.056Z,2.00
2017-09-13T01:22:21.070Z,2.20
2017-09-13T01:24:50.459Z,2.17
2017-09-13T01:27:19.700Z,1.80
2017-09-13T01:29:48.965Z,2.80
2017-09-13T01:32:18.235Z,1.83
2017-09-13T01:34:47.478Z,2.37
2017-09-13T01:37:17.597Z,2.40
2017-09-13T01:39:47.605Z,2.03
2017-09-13T01:42:16.849Z,2.20
2017-09-13T01:44:46.118Z,1.70
2017-09-13T01:47:16.122Z,1.83
2017-09-13T01:49:46.226Z,2.53
2017-09-13T01:52:15.462Z,2.33
2017-09-13T01:54:45.591Z,1.60
2017-09-13T01:57:14.825Z,2.00
2017-09-13T01:59:44.249Z,2.13
2017-09-13T02:02:13.509Z,2.20
2017-09-13T02:04:42.757Z,2.00
2017-09-13T02:07:12.000Z,1.80
2017-09-13T02:09:41.261Z,2.57
2017-09-13T02:12:11.328Z,2.77
2017-09-13T02:14:41.450Z,2.10
2017-09-13T02:17:10.721Z,2.20
2017-09-13T02:19:40.752Z,1.70
2017-09-13T02:22:09.991Z,2.53
2017-09-13T02:24:39.256Z,2.00
2017-09-13T02:27:08.521Z,2.67
2017-09-13T02:29:37.773Z,2.40
2017-09-13T02:32:07.054Z,2.07
2017-09-13T02:34:36.301Z,2.60
2017-09-13T02:37:05.559Z,2.60
2017-09-13T02:39:35.595Z,2.23
2017-09-13T02:42:04.866Z,2.70
2017-09-13T02:44:34.129Z,2.07
2017-09-13T02:47:03.375Z,2.63
2017-09-13T02:49:32.659Z,2.30
2017-09-13T02:52:02.694Z,2.23
2017-09-13T02:54:31.949Z,2.37
2017-09-13T02:57:01.206Z,2.20
2017-09-13T02:59:30.466Z,3.30
2017-09-13T03:01:59.990Z,2.53
2017-09-13T03:04:29.497Z,2.37
2017-09-13T03:06:59.525Z,2.13
2017-09-13T03:09:28.906Z,2.50
2017-09-13T03:11:58.227Z,1.80
2017-09-13T03:14:27.455Z,2.83
2017-09-13T03:16:56.724Z,2.10
2017-09-13T03:19:26.022Z,2.47
2017-09-13T03:21:56.752Z,1.97
2017-09-13T03:24:26.159Z,2.33
2017-09-13T03:26:56.174Z,2.70
2017-09-13T03:29:25.419Z,2.80
2017-09-13T03:31:54.899Z,3.43
2017-09-13T03:34:25.000Z,2.37
2017-09-13T03:36:55.101Z,2.60
2017-09-13T03:39:24.578Z,2.23
2017-09-13T03:41:53.839Z,2.20
2017-09-13T03:44:23.119Z,2.73
2017-09-13T03:46:52.391Z,2.67
2017-09-13T03:49:21.640Z,2.00
2017-09-13T03:51:51.671Z,2.67
2017-09-13T03:54:20.929Z,1.90
2017-09-13T03:56:50.438Z,1.90
2017-09-13T03:59:19.686Z,2.33
2017-09-13T04:01:48.962Z,2.20
2017-09-13T04:04:18.974Z,1.93
2017-09-13T04:06:48.231Z,2.00
2017-09-13T04:09:17.474Z,2.10
2017-09-13T04:11:47.493Z,2.20
2017-09-13T04:14:16.766Z,1.90
2017-09-13T04:16:46.052Z,2.40
2017-09-13T04:19:15.442Z,2.70
2017-09-13T04:21:44.774Z,2.30
2017-09-13T04:24:14.030Z,2.20
2017-09-13T04:26:43.302Z,2.17
2017-09-13T04:29:13.142Z,1.87
2017-09-13T04:31:42.386Z,1.80
2017-09-13T04:34:11.651Z,2.10
2017-09-13T04:36:40.906Z,2.60
2017-09-13T04:39:10.186Z,1.90
2017-09-13T04:41:39.432Z,2.07
2017-09-13T04:44:09.483Z,2.03
2017-09-13T04:46:38.763Z,1.70
2017-09-13T04:49:08.132Z,1.67
2017-09-13T04:51:37.410Z,1.70
2017-09-13T04:54:06.706Z,1.80
2017-09-13T04:56:35.974Z,2.00
2017-09-13T04:59:05.214Z,1.83
2017-09-13T05:01:34.470Z,1.93
2017-09-13T05:04:03.776Z,2.33
2017-09-13T05:06:33.062Z,1.53
2017-09-13T05:09:02.426Z,1.70
2017-09-13T05:11:31.818Z,2.43
2017-09-13T05:14:01.376Z,1.60
2017-09-13T05:16:31.479Z,1.77
2017-09-13T05:19:00.730Z,1.43
2017-09-13T05:21:29.980Z,2.03
2017-09-13T05:23:59.574Z,1.90
2017-09-13T05:26:28.854Z,1.50
2017-09-13T05:28:58.197Z,1.80
2017-09-13T05:31:28.597Z,1.70
2017-09-13T05:33:57.820Z,2.00
2017-09-13T05:36:27.934Z,1.40
2017-09-13T05:38:58.050Z,1.73
2017-09-13T05:41:28.239Z,1.27
2017-09-13T05:43:57.526Z,1.63
2017-09-13T05:46:26.767Z,1.40
2017-09-13T05:48:56.039Z,1.60
2017-09-13T05:51:25.274Z,1.70
2017-09-13T05:53:55.303Z,1.40
2017-09-13T05:56:25.338Z,1.70
2017-09-13T05:58:54.590Z,1.90
2017-09-13T06:01:24.006Z,1.43
2017-09-13T06:03:53.345Z,1.60
2017-09-13T06:06:23.386Z,1.80
2017-09-13T06:08:52.640Z,1.57
2017-09-13T06:11:21.895Z,1.63
2017-09-13T06:13:51.172Z,1.50
2017-09-13T06:16:20.464Z,1.47
2017-09-13T06:18:50.643Z,1.63
2017-09-13T06:21:21.834Z,1.17
2017-09-13T06:23:51.227Z,1.67
2017-09-13T06:26:21.227Z,1.50
2017-09-13T06:28:50.512Z,1.80
2017-09-13T06:31:19.770Z,1.90
2017-09-13T06:33:49.047Z,2.13
2017-09-13T06:36:19.082Z,2.00
2017-09-13T06:38:48.343Z,1.37
2017-09-13T06:41:17.592Z,1.50
2017-09-13T06:43:46.854Z,2.53
2017-09-13T06:46:16.905Z,1.30
2017-09-13T06:48:46.199Z,1.40
2017-09-13T06:51:15.414Z,1.67
2017-09-13T06:53:44.883Z,1.20
2017-09-13T06:56:14.991Z,1.60
2017-09-13T06:58:44.260Z,1.70
2017-09-13T07:01:13.502Z,1.00
2017-09-13T07:03:42.754Z,1.43
2017-09-13T07:06:12.250Z,1.37
2017-09-13T07:08:41.509Z,1.20
2017-09-13T07:11:11.538Z,1.73
2017-09-13T07:13:40.802Z,1.10
2017-09-13T07:16:10.072Z,1.90
2017-09-13T07:18:39.392Z,1.37
2017-09-13T07:21:08.809Z,1.47
2017-09-13T07:23:38.142Z,1.30
2017-09-13T07:26:08.482Z,0.97
2017-09-13T07:28:38.560Z,1.00
2017-09-13T07:31:07.885Z,1.00
2017-09-13T07:33:37.254Z,1.10
2017-09-13T07:36:06.693Z,0.97
2017-09-13T07:38:36.783Z,1.10
2017-09-13T07:41:06.101Z,1.03
2017-09-13T07:43:35.402Z,0.90
2017-09-13T07:46:04.653Z,0.80
2017-09-13T07:48:34.014Z,1.00
2017-09-13T07:51:04.103Z,0.70
2017-09-13T07:53:33.434Z,0.80
2017-09-13T07:56:02.679Z,1.07
2017-09-13T07:58:31.935Z,0.70
2017-09-13T08:01:01.271Z,0.77
2017-09-13T08:03:30.522Z,0.80
2017-09-13T08:05:59.949Z,0.80
2017-09-13T08:08:29.322Z,0.77
2017-09-13T08:10:58.959Z,0.80
2017-09-13T08:13:28.992Z,0.90
2017-09-13T08:15:58.234Z,0.80
2017-09-13T08:18:27.517Z,0.77
2017-09-13T08:20:56.747Z,0.87
2017-09-13T08:23:26.196Z,0.80
2017-09-13T08:25:55.487Z,1.13
2017-09-13T08:28:24.733Z,1.03
2017-09-13T08:30:54.427Z,1.30
2017-09-13T08:33:23.806Z,0.80
2017-09-13T08:35:53.241Z,1.10
2017-09-13T08:38:22.596Z,0.90
2017-09-13T08:40:51.873Z,1.10
2017-09-13T08:43:21.131Z,1.20
2017-09-13T08:45:51.085Z,1.00
2017-09-13T08:48:20.340Z,1.17
2017-09-13T08:50:49.846Z,1.03
2017-09-13T08:53:19.872Z,0.90
2017-09-13T08:55:49.149Z,0.93
2017-09-13T08:58:18.430Z,0.87
2017-09-13T09:00:47.712Z,1.35
2017-09-13T09:03:16.969Z,1.00
2017-09-13T09:05:46.243Z,1.37
2017-09-13T09:08:15.506Z,1.37
2017-09-13T09:10:44.761Z,0.80
2017-09-13T09:13:14.795Z,0.87
2017-09-13T09:15:44.055Z,0.80
2017-09-13T09:18:13.328Z,1.30
2017-09-13T09:20:42.615Z,1.07
2017-09-13T09:23:11.878Z,1.03
2017-09-13T09:25:41.890Z,0.87
2017-09-13T09:28:11.199Z,1.93
2017-09-13T09:30:40.444Z,1.33
2017-09-13T09:33:09.711Z,1.00
2017-09-13T09:35:39.226Z,1.17
2017-09-13T09:38:09.339Z,1.50
2017-09-13T09:40:38.638Z,1.20
2017-09-13T09:43:08.009Z,0.93
2017-09-13T09:45:37.418Z,1.10
2017-09-13T09:48:07.549Z,1.10
2017-09-13T09:50:37.591Z,1.40
2017-09-13T09:53:06.829Z,1.23
2017-09-13T09:55:36.100Z,1.00
2017-09-13T09:58:05.439Z,1.20
2017-09-13T10:00:34.880Z,1.10
2017-09-13T10:03:04.916Z,0.90
2017-09-13T10:05:34.316Z,1.30
2017-09-13T10:08:04.328Z,1.17
2017-09-13T10:10:33.562Z,0.90
2017-09-13T10:13:02.842Z,1.23
2017-09-13T10:15:32.114Z,1.00
2017-09-13T10:18:02.135Z,1.10
2017-09-13T10:20:31.451Z,1.13
2017-09-13T10:23:00.745Z,1.10
2017-09-13T10:25:29.987Z,0.90
2017-09-13T10:27:59.263Z,0.90
2017-09-13T10:30:28.645Z,0.80
2017-09-13T10:32:57.918Z,0.70
2017-09-13T10:35:27.175Z,0.70
2017-09-13T10:37:56.573Z,0.70
2017-09-13T10:40:25.852Z,0.70
2017-09-13T10:42:55.101Z,0.97
2017-09-13T10:45:24.351Z,0.70
2017-09-13T10:47:54.392Z,0.70
2017-09-13T10:50:23.772Z,0.90
2017-09-13T10:52:53.778Z,0.63
2017-09-13T10:55:24.032Z,0.73
2017-09-13T10:57:54.037Z,0.67
2017-09-13T11:00:23.298Z,0.70
2017-09-13T11:02:52.589Z,0.67
2017-09-13T11:05:21.851Z,0.77
2017-09-13T11:07:51.875Z,0.77
2017-09-13T11:10:21.187Z,0.80
2017-09-13T11:12:50.442Z,0.63
2017-09-13T11:15:19.899Z,0.60
2017-09-13T11:17:49.146Z,1.13
2017-09-13T11:20:19.791Z,0.80
2017-09-13T11:22:49.029Z,0.90
2017-09-13T11:25:18.294Z,1.40
2017-09-13T11:27:48.328Z,1.33
2017-09-13T11:30:18.330Z,1.10
2017-09-13T11:32:48.367Z,1.20
2017-09-13T11:35:18.012Z,1.07
2017-09-13T11:37:48.063Z,1.30
2017-09-13T11:40:18.074Z,1.77
2017-09-13T11:42:48.861Z,1.80
2017-09-13T11:45:18.109Z,1.63
2017-09-13T11:47:47.344Z,1.37
2017-09-13T11:50:17.372Z,1.67
2017-09-13T11:52:46.646Z,1.40
2017-09-13T11:55:15.927Z,1.67
2017-09-13T11:57:45.169Z,1.60
2017-09-13T12:00:15.187Z,1.47
2017-09-13T12:02:44.422Z,1.80
2017-09-13T12:05:13.684Z,1.50
2017-09-13T12:07:43.742Z,2.20
2017-09-13T12:10:13.011Z,1.73
2017-09-13T12:12:42.288Z,1.70
2017-09-13T12:15:11.556Z,2.30
2017-09-13T12:17:41.009Z,1.20
2017-09-13T12:20:11.011Z,2.43
2017-09-13T12:22:40.278Z,1.50
2017-09-13T12:25:09.591Z,2.43
2017-09-13T12:27:38.937Z,1.40
2017-09-13T12:30:08.150Z,1.87
2017-09-13T12:32:37.451Z,2.30
2017-09-13T12:35:06.726Z,3.50
2017-09-13T12:37:36.738Z,1.90
2017-09-13T12:40:05.997Z,1.70
2017-09-13T12:42:35.322Z,2.33
2017-09-13T12:45:06.095Z,3.10
2017-09-13T12:47:35.369Z,1.77
2017-09-13T12:50:04.614Z,2.23
2017-09-13T12:52:34.046Z,1.90
2017-09-13T12:55:03.311Z,1.20
2017-09-13T12:57:32.575Z,1.20
2017-09-13T13:00:01.871Z,1.87
2017-09-13T13:02:31.877Z,1.53
2017-09-13T13:05:01.903Z,1.10
2017-09-13T13:07:31.155Z,1.63
2017-09-13T13:10:00.412Z,1.47
2017-09-13T13:12:30.453Z,1.80
2017-09-13T13:14:59.712Z,1.40
2017-09-13T13:17:28.977Z,1.10
2017-09-13T13:19:58.264Z,1.47
2017-09-13T13:22:28.278Z,2.00
2017-09-13T13:24:57.667Z,1.97
2017-09-13T13:27:26.925Z,1.60
2017-09-13T13:29:56.190Z,1.40
2017-09-13T13:32:25.446Z,1.70
2017-09-13T13:34:54.697Z,1.83
2017-09-13T13:37:23.980Z,1.73
2017-09-13T13:39:53.999Z,2.30
2017-09-13T13:42:24.178Z,1.70
2017-09-13T13:44:53.455Z,1.97
2017-09-13T13:47:22.732Z,1.60
2017-09-13T13:49:52.131Z,1.67
2017-09-13T13:52:22.129Z,2.27
2017-09-13T13:54:51.410Z,1.60
2017-09-13T13:57:20.659Z,1.50
2017-09-13T13:59:50.466Z,2.13
2017-09-13T14:02:19.670Z,2.10
2017-09-13T14:04:48.947Z,1.87
2017-09-13T14:07:18.207Z,1.93
2017-09-13T14:09:47.462Z,2.40
2017-09-13T14:12:16.728Z,2.20
2017-09-13T14:14:45.970Z,1.93
2017-09-13T14:17:15.256Z,1.57
2017-09-13T14:19:45.267Z,1.90
2017-09-13T14:22:14.524Z,2.73
2017-09-13T14:24:43.790Z,2.50
2017-09-13T14:27:13.066Z,1.40
2017-09-13T14:29:43.893Z,1.73
2017-09-13T14:32:13.167Z,2.00
2017-09-13T14:34:42.427Z,1.67
2017-09-13T14:37:11.867Z,2.07
2017-09-13T14:39:41.137Z,1.67
2017-09-13T14:42:10.445Z,1.50
2017-09-13T14:44:39.747Z,1.73
2017-09-13T14:47:09.116Z,1.43
2017-09-13T14:49:39.163Z,2.00
2017-09-13T14:52:08.483Z,1.63
2017-09-13T14:54:37.727Z,1.50
2017-09-13T14:57:07.138Z,1.67
2017-09-13T14:59:37.155Z,1.67
2017-09-13T15:02:06.484Z,1.80
2017-09-13T15:04:35.890Z,1.50
2017-09-13T15:07:05.906Z,2.00
2017-09-13T15:09:35.187Z,1.97
2017-09-13T15:12:04.504Z,1.90
2017-09-13T15:14:33.807Z,1.90
2017-09-13T15:17:03.065Z,1.97
2017-09-13T15:19:32.481Z,1.57
2017-09-13T15:22:02.512Z,2.83
2017-09-13T15:24:31.771Z,1.70
2017-09-13T15:27:01.999Z,2.40
2017-09-13T15:29:31.254Z,2.10
2017-09-13T15:32:00.642Z,1.57
2017-09-13T15:34:29.900Z,1.67
2017-09-13T15:36:59.158Z,2.30
2017-09-13T15:39:28.456Z,1.77
2017-09-13T15:41:57.838Z,1.90
2017-09-13T15:44:27.872Z,1.77
2017-09-13T15:46:57.227Z,1.70
2017-09-13T15:49:26.461Z,2.70
2017-09-13T15:51:55.727Z,2.63
2017-09-13T15:54:24.978Z,2.57
2017-09-13T15:56:55.754Z,2.80
2017-09-13T15:59:24.994Z,2.50
2017-09-13T16:01:55.029Z,2.00
2017-09-13T16:04:25.075Z,2.20
2017-09-13T16:06:54.348Z,2.97
2017-09-13T16:09:23.669Z,7.30
2017-09-13T16:11:52.915Z,2.10
2017-09-13T16:14:22.182Z,2.30
2017-09-13T16:16:51.673Z,2.10
2017-09-13T16:19:20.919Z,2.00
2017-09-13T16:21:51.064Z,3.50
2017-09-13T16:24:20.325Z,2.27
2017-09-13T16:26:49.570Z,1.83
2017-09-13T16:29:18.989Z,1.97
2017-09-13T16:31:49.044Z,2.40
2017-09-13T16:34:18.299Z,2.43
2017-09-13T16:36:47.542Z,2.63
2017-09-13T16:39:16.808Z,8.67
2017-09-13T16:41:46.823Z,2.33
2017-09-13T16:44:16.129Z,3.20
2017-09-13T16:46:45.453Z,1.80
2017-09-13T16:49:14.683Z,2.27
2017-09-13T16:51:43.940Z,2.47
2017-09-13T16:54:13.410Z,2.00
2017-09-13T16:56:42.721Z,2.67
2017-09-13T16:59:12.795Z,2.13
2017-09-13T17:01:42.074Z,1.83
2017-09-13T17:04:11.307Z,1.90
2017-09-13T17:06:40.814Z,2.10
2017-09-13T17:09:10.076Z,1.93
2017-09-13T17:11:39.331Z,2.70
2017-09-13T17:14:08.573Z,2.67
2017-09-13T17:16:37.844Z,2.30
2017-09-13T17:19:07.087Z,2.00
2017-09-13T17:21:36.379Z,2.63
2017-09-13T17:24:06.394Z,2.00
2017-09-13T17:26:35.656Z,2.57
2017-09-13T17:29:04.923Z,3.10
2017-09-13T17:31:34.187Z,2.20
2017-09-13T17:34:03.471Z,2.00
2017-09-13T17:36:32.730Z,2.70
2017-09-13T17:39:01.997Z,2.30
2017-09-13T17:41:31.382Z,2.80
2017-09-13T17:44:01.551Z,2.33
2017-09-13T17:46:30.793Z,2.10
2017-09-13T17:49:00.873Z,2.50
2017-09-13T17:51:30.255Z,2.73
2017-09-13T17:53:59.706Z,3.33
2017-09-13T17:56:28.976Z,2.30
2017-09-13T17:58:58.216Z,2.80
2017-09-13T18:01:27.503Z,2.47
2017-09-13T18:03:56.760Z,2.13
2017-09-13T18:06:26.021Z,2.50
2017-09-13T18:08:55.277Z,3.10
2017-09-13T18:11:24.652Z,3.60
2017-09-13T18:13:53.947Z,4.93
2017-09-13T18:16:23.996Z,4.53
2017-09-13T18:18:53.282Z,3.33
2017-09-13T18:21:22.522Z,2.67
2017-09-13T18:23:51.794Z,3.63
2017-09-13T18:26:21.040Z,2.73
2017-09-13T18:28:50.309Z,2.47
2017-09-13T18:31:19.578Z,3.17
2017-09-13T18:33:48.884Z,3.17
2017-09-13T18:36:18.129Z,2.63
2017-09-13T18:38:47.394Z,3.20
2017-09-13T18:41:16.869Z,3.60
2017-09-13T18:43:47.032Z,2.80
2017-09-13T18:46:16.299Z,3.37
2017-09-13T18:48:46.326Z,3.40
2017-09-13T18:51:15.587Z,3.20
2017-09-13T18:53:44.883Z,3.70
2017-09-13T18:56:14.156Z,3.90
2017-09-13T18:58:43.402Z,3.37
2017-09-13T19:01:12.683Z,2.67
2017-09-13T19:03:41.933Z,2.70
2017-09-13T19:06:11.199Z,3.93
2017-09-13T19:08:40.446Z,3.00
2017-09-13T19:11:09.723Z,3.70
2017-09-13T19:13:39.752Z,3.47
2017-09-13T19:16:09.053Z,3.80
2017-09-13T19:18:38.309Z,3.70
2017-09-13T19:21:07.559Z,3.00
2017-09-13T19:23:36.863Z,3.10
2017-09-13T19:26:06.105Z,3.00
2017-09-13T19:28:35.386Z,3.07
2017-09-13T19:31:04.758Z,3.10
2017-09-13T19:33:34.779Z,2.53
2017-09-13T19:36:04.079Z,2.50
2017-09-13T19:38:33.455Z,2.40
2017-09-13T19:41:03.505Z,4.50
2017-09-13T19:43:32.815Z,3.03
2017-09-13T19:46:02.083Z,3.00
2017-09-13T19:48:31.492Z,2.77
2017-09-13T19:51:01.528Z,3.33
2017-09-13T19:53:30.766Z,3.97
2017-09-13T19:56:00.046Z,2.67
2017-09-13T19:58:29.298Z,3.83
2017-09-13T20:00:58.604Z,3.03
2017-09-13T20:03:28.744Z,3.40
2017-09-13T20:05:58.793Z,3.67
2017-09-13T20:08:28.038Z,3.83
2017-09-13T20:10:57.325Z,3.30
2017-09-13T20:13:26.612Z,2.87
2017-09-13T20:15:55.855Z,2.30
2017-09-13T20:18:25.981Z,3.33
2017-09-13T20:20:55.298Z,3.00
2017-09-13T20:23:24.784Z,3.73
2017-09-13T20:25:54.822Z,2.60
2017-09-13T20:28:24.110Z,3.07
2017-09-13T20:30:53.394Z,2.30
2017-09-13T20:33:22.642Z,2.87
2017-09-13T20:35:51.889Z,2.63
2017-09-13T20:38:21.307Z,4.80
2017-09-13T20:40:50.564Z,2.87
2017-09-13T20:43:19.893Z,2.70
2017-09-13T20:45:49.150Z,2.60
2017-09-13T20:48:18.445Z,3.30
2017-09-13T20:50:47.734Z,3.37
2017-09-13T20:53:17.755Z,2.57
2017-09-13T20:55:47.034Z,2.90
2017-09-13T20:58:16.299Z,3.20
2017-09-13T21:00:45.571Z,2.37
2017-09-13T21:03:14.826Z,1.80
2017-09-13T21:05:44.860Z,2.17
2017-09-13T21:08:14.659Z,2.33
2017-09-13T21:10:44.698Z,2.50
2017-09-13T21:13:13.965Z,2.43
2017-09-13T21:15:43.257Z,1.90
2017-09-13T21:18:12.523Z,2.23
2017-09-13T21:20:41.805Z,3.20
2017-09-13T21:23:11.087Z,1.83
2017-09-13T21:25:41.115Z,1.80
2017-09-13T21:28:10.736Z,2.30
2017-09-13T21:30:40.016Z,2.60
2017-09-13T21:33:10.025Z,1.93
2017-09-13T21:35:39.274Z,1.83
2017-09-13T21:38:08.563Z,2.30
2017-09-13T21:40:37.810Z,2.50
2017-09-13T21:43:07.074Z,2.37
2017-09-13T21:45:36.426Z,1.80
2017-09-13T21:48:05.734Z,2.90
2017-09-13T21:50:35.002Z,2.77
2017-09-13T21:53:04.270Z,2.40
2017-09-13T21:55:33.547Z,2.53
2017-09-13T21:58:02.814Z,2.60
2017-09-13T22:00:32.113Z,1.93
2017-09-13T22:03:01.639Z,1.90
2017-09-13T22:05:31.063Z,2.33
2017-09-13T22:08:01.073Z,2.60
2017-09-13T22:10:30.338Z,2.43
2017-09-13T22:12:59.786Z,2.37
2017-09-13T22:15:29.311Z,2.53
2017-09-13T22:17:59.362Z,2.50
2017-09-13T22:20:28.740Z,1.83
2017-09-13T22:22:57.988Z,2.17
2017-09-13T22:25:27.281Z,1.70
2017-09-13T22:27:56.650Z,1.93
2017-09-13T22:30:25.941Z,1.60
2017-09-13T22:32:55.215Z,1.77
2017-09-13T22:35:25.235Z,1.27
2017-09-13T22:37:54.506Z,1.17
2017-09-13T22:40:23.775Z,0.90
2017-09-13T22:42:53.091Z,2.60
2017-09-13T22:45:22.354Z,1.27
2017-09-13T22:47:51.603Z,1.20
2017-09-13T22:50:20.874Z,1.60
2017-09-13T22:52:50.122Z,1.53
2017-09-13T22:55:19.382Z,1.77
2017-09-13T22:57:48.637Z,1.80
2017-09-13T23:00:18.676Z,1.70
2017-09-13T23:02:48.055Z,1.73
2017-09-13T23:05:18.176Z,1.77
2017-09-13T23:07:48.299Z,1.27
2017-09-13T23:10:18.315Z,1.37
2017-09-13T23:12:47.583Z,1.00
2017-09-13T23:15:16.826Z,1.20
2017-09-13T23:17:46.921Z,1.03
2017-09-13T23:20:16.161Z,0.90
2017-09-13T23:22:45.411Z,1.60
2017-09-13T23:25:14.675Z,0.90
2017-09-13T23:27:43.948Z,1.23
2017-09-13T23:30:14.078Z,1.20
2017-09-13T23:32:43.323Z,1.20
2017-09-13T23:35:12.594Z,1.30
2017-09-13T23:37:42.050Z,1.70
2017-09-13T23:40:12.826Z,1.30
2017-09-13T23:42:42.099Z,1.30
2017-09-13T23:45:12.332Z,1.30
2017-09-13T23:47:41.711Z,1.60
2017-09-13T23:50:11.132Z,1.30
2017-09-13T23:52:41.195Z,1.50
2017-09-13T23:55:10.462Z,1.77
2017-09-13T23:57:39.743Z,2.07
